Time;durP1;ratioP1;P1;durP2;ratioP2;P2;SDS_P1;SDS_P2;PMS_P1;PMS_P2;Temp;Humidity;BMP_temperature;BMP_pressure;BME280_temperature;BME280_humidity;BME280_pressure;Samples;Min_cycle;Max_cycle;Signal;HPM_P1;HPM_P2
2022/07/19 00:02:19;;;;;;;2.10;2.00;;;;;;;;;;5051031;28;20039;-67
2022/07/19 00:04:45;;;;;;;2.92;2.53;;;;;;;;;;5052663;28;20029;-67
2022/07/19 00:07:10;;;;;;;2.22;1.92;;;;;;;;;;5053872;28;20036;-67
2022/07/19 00:09:35;;;;;;;3.92;2.55;;;;;;;;;;5053189;28;20028;-68
2022/07/19 00:12:00;;;;;;;2.13;1.92;;;;;;;;;;5052361;28;20055;-68
2022/07/19 00:14:25;;;;;;;2.78;2.55;;;;;;;;;;5053295;28;20032;-67
2022/07/19 00:16:51;;;;;;;4.78;2.40;;;;;;;;;;5053424;28;20051;-67
2022/07/19 00:19:16;;;;;;;4.63;2.08;;;;;;;;;;5054087;28;20032;-68
2022/07/19 00:21:41;;;;;;;2.47;2.28;;;;;;;;;;5034532;28;20208;-69
2022/07/19 00:24:07;;;;;;;2.03;1.92;;;;;;;;;;5051434;28;20152;-67
2022/07/19 00:26:32;;;;;;;3.40;2.20;;;;;;;;;;5053387;28;20024;-67
2022/07/19 00:28:57;;;;;;;1.95;1.80;;;;;;;;;;5054528;28;20044;-66
2022/07/19 00:31:23;;;;;;;3.67;1.77;;;;;;;;;;5037620;28;20025;-67
2022/07/19 00:33:49;;;;;;;2.35;1.92;;;;;;;;;;5052601;28;20467;-66
2022/07/19 00:36:14;;;;;;;2.35;2.15;;;;;;;;;;5034854;28;20035;-66
2022/07/19 00:38:39;;;;;;;2.50;2.30;;;;;;;;;;5052241;28;20057;-68
2022/07/19 00:41:04;;;;;;;2.78;1.88;;;;;;;;;;5054857;28;20526;-68
2022/07/19 00:43:30;;;;;;;2.55;2.10;;;;;;;;;;5053677;28;20071;-67
2022/07/19 00:45:55;;;;;;;2.53;2.28;;;;;;;;;;5053785;28;20371;-66
2022/07/19 00:48:21;;;;;;;2.40;1.95;;;;;;;;;;5051687;28;20459;-67
2022/07/19 00:50:46;;;;;;;2.47;2.28;;;;;;;;;;5052040;28;20068;-67
2022/07/19 00:53:13;;;;;;;2.67;2.13;;;;;;;;;;5052736;28;20037;-67
2022/07/19 00:55:40;;;;;;;2.60;2.22;;;;;;;;;;5052080;28;20028;-67
2022/07/19 00:58:05;;;;;;;2.17;1.98;;;;;;;;;;5053972;28;20115;-67
2022/07/19 01:00:32;;;;;;;2.70;2.50;;;;;;;;;;5054032;28;20031;-67
2022/07/19 01:02:58;;;;;;;3.17;2.00;;;;;;;;;;5051880;28;20076;-67
2022/07/19 01:05:26;;;;;;;4.63;2.30;;;;;;;;;;5055148;28;20119;-67
2022/07/19 01:07:51;;;;;;;2.60;2.10;;;;;;;;;;5054196;28;20024;-67
2022/07/19 01:10:16;;;;;;;3.95;2.25;;;;;;;;;;5054543;28;20079;-67
2022/07/19 01:12:42;;;;;;;2.90;1.95;;;;;;;;;;5024759;28;20492;-67
2022/07/19 01:15:28;;;;;;;2.13;2.03;;;;;;;;;;5033952;28;20031;-67
2022/07/19 01:17:53;;;;;;;2.45;1.92;;;;;;;;;;5053971;28;20550;-68
2022/07/19 01:20:20;;;;;;;4.68;1.90;;;;;;;;;;5054007;28;20035;-66
2022/07/19 01:22:46;;;;;;;2.20;1.98;;;;;;;;;;5052456;28;20566;-67
2022/07/19 01:25:11;;;;;;;3.00;2.33;;;;;;;;;;5052787;28;20017;-67
2022/07/19 01:27:48;;;;;;;2.05;1.90;;;;;;;;;;5054732;28;20024;-67
2022/07/19 01:30:15;;;;;;;2.63;2.42;;;;;;;;;;5053480;28;20223;-66
2022/07/19 01:32:40;;;;;;;4.95;2.55;;;;;;;;;;5052211;28;20031;-66
2022/07/19 01:35:07;;;;;;;2.35;2.05;;;;;;;;;;5054518;28;20021;-68
2022/07/19 01:37:32;;;;;;;4.97;2.25;;;;;;;;;;5052824;28;20053;-67
2022/07/19 01:39:58;;;;;;;2.58;1.98;;;;;;;;;;5066667;28;20052;-67
2022/07/19 01:42:23;;;;;;;2.30;2.20;;;;;;;;;;5072807;28;20094;-67
2022/07/19 01:44:49;;;;;;;5.43;1.98;;;;;;;;;;5072224;28;20394;-68
2022/07/19 01:47:14;;;;;;;3.63;2.15;;;;;;;;;;5073390;28;20031;-67
2022/07/19 01:49:40;;;;;;;2.15;1.92;;;;;;;;;;5074812;28;20031;-67
2022/07/19 01:52:05;;;;;;;2.35;1.77;;;;;;;;;;5075269;28;20032;-68
2022/07/19 01:54:30;;;;;;;2.03;1.88;;;;;;;;;;5072919;28;20077;-67
2022/07/19 01:56:55;;;;;;;2.20;2.00;;;;;;;;;;5072867;28;20029;-68
2022/07/19 01:59:21;;;;;;;2.33;2.03;;;;;;;;;;5070541;28;20115;-68
2022/07/19 02:01:46;;;;;;;2.47;2.03;;;;;;;;;;5072042;28;20032;-67
2022/07/19 02:04:11;;;;;;;2.03;1.90;;;;;;;;;;5074049;28;20028;-67
2022/07/19 02:06:36;;;;;;;2.75;2.25;;;;;;;;;;5071868;28;20505;-67
2022/07/19 02:09:02;;;;;;;3.28;2.00;;;;;;;;;;5071787;28;20512;-67
2022/07/19 02:11:37;;;;;;;3.72;2.22;;;;;;;;;;5070025;28;20390;-69
2022/07/19 02:14:06;;;;;;;2.88;1.98;;;;;;;;;;5073995;28;20031;-68
2022/07/19 02:16:32;;;;;;;2.88;2.40;;;;;;;;;;5070517;28;20119;-67
2022/07/19 02:18:57;;;;;;;3.08;2.20;;;;;;;;;;5070812;28;20443;-66
2022/07/19 02:21:22;;;;;;;2.15;2.03;;;;;;;;;;5072929;28;20445;-66
2022/07/19 02:23:47;;;;;;;2.38;2.20;;;;;;;;;;5070468;28;20451;-67
2022/07/19 02:26:13;;;;;;;4.03;2.17;;;;;;;;;;5071779;28;20040;-67
2022/07/19 02:28:38;;;;;;;3.20;2.10;;;;;;;;;;5071179;28;20526;-67
2022/07/19 02:31:04;;;;;;;2.58;2.38;;;;;;;;;;5072603;28;20379;-66
2022/07/19 02:33:29;;;;;;;2.70;2.50;;;;;;;;;;5071948;28;20028;-67
2022/07/19 02:35:54;;;;;;;3.50;2.17;;;;;;;;;;5073307;28;20437;-67
2022/07/19 02:38:19;;;;;;;3.05;2.17;;;;;;;;;;5071193;28;20075;-66
2022/07/19 02:40:45;;;;;;;3.10;2.75;;;;;;;;;;5052650;28;20090;-66
2022/07/19 02:43:10;;;;;;;3.33;2.08;;;;;;;;;;5052402;28;20079;-67
2022/07/19 02:45:35;;;;;;;2.63;2.40;;;;;;;;;;5051784;28;20897;-68
2022/07/19 02:48:02;;;;;;;2.67;2.47;;;;;;;;;;5051156;28;20036;-66
2022/07/19 02:50:28;;;;;;;2.42;2.22;;;;;;;;;;5050281;28;20102;-66
2022/07/19 02:52:53;;;;;;;3.67;2.38;;;;;;;;;;5050403;28;20466;-66
2022/07/19 02:55:18;;;;;;;2.50;2.30;;;;;;;;;;5051369;28;20055;-67
2022/07/19 02:57:43;;;;;;;1.95;1.83;;;;;;;;;;5033164;28;20078;-67
2022/07/19 03:00:09;;;;;;;3.45;1.98;;;;;;;;;;5051963;28;20031;-67
2022/07/19 03:02:35;;;;;;;2.65;2.35;;;;;;;;;;5037865;28;20029;-67
2022/07/19 03:05:00;;;;;;;2.42;2.22;;;;;;;;;;5037280;28;20029;-67
2022/07/19 03:07:25;;;;;;;2.90;2.40;;;;;;;;;;5051737;28;20040;-67
2022/07/19 03:09:50;;;;;;;3.50;2.95;;;;;;;;;;5034819;28;20083;-67
2022/07/19 03:12:16;;;;;;;2.55;2.40;;;;;;;;;;5049294;28;20025;-66
2022/07/19 03:14:41;;;;;;;3.00;2.30;;;;;;;;;;5052814;28;20360;-67
2022/07/19 03:17:06;;;;;;;3.45;2.35;;;;;;;;;;5052521;28;20382;-67
2022/07/19 03:19:31;;;;;;;2.90;2.20;;;;;;;;;;5051407;28;20036;-66
2022/07/19 03:21:57;;;;;;;2.35;2.15;;;;;;;;;;5048803;28;20831;-66
2022/07/19 03:24:22;;;;;;;2.85;2.33;;;;;;;;;;5050188;28;20035;-68
2022/07/19 03:26:47;;;;;;;3.65;2.17;;;;;;;;;;5050955;28;20104;-67
2022/07/19 03:29:12;;;;;;;2.50;2.30;;;;;;;;;;5050225;28;20632;-68
2022/07/19 03:31:38;;;;;;;2.25;2.15;;;;;;;;;;5051377;28;20025;-69
2022/07/19 03:34:03;;;;;;;2.65;2.33;;;;;;;;;;5049292;28;20065;-66
2022/07/19 03:36:28;;;;;;;2.30;2.10;;;;;;;;;;5049536;28;20039;-68
2022/07/19 03:38:53;;;;;;;2.05;1.80;;;;;;;;;;5047793;28;20049;-66
2022/07/19 03:41:19;;;;;;;2.90;2.17;;;;;;;;;;5037880;28;20470;-66
2022/07/19 03:43:44;;;;;;;2.45;2.17;;;;;;;;;;5057323;28;20419;-68
2022/07/19 03:46:09;;;;;;;3.13;1.90;;;;;;;;;;5057180;28;20021;-67
2022/07/19 03:48:35;;;;;;;3.88;2.38;;;;;;;;;;5056135;28;20080;-67
2022/07/19 03:51:00;;;;;;;3.40;2.20;;;;;;;;;;5053674;28;20476;-67
2022/07/19 03:53:25;;;;;;;3.50;2.58;;;;;;;;;;5054420;28;20442;-67
2022/07/19 03:55:51;;;;;;;2.33;2.00;;;;;;;;;;5052237;28;20410;-67
2022/07/19 03:58:16;;;;;;;3.05;2.10;;;;;;;;;;5037279;28;20075;-67
2022/07/19 04:00:41;;;;;;;3.08;1.90;;;;;;;;;;5055750;28;20033;-68
2022/07/19 04:03:07;;;;;;;2.40;1.80;;;;;;;;;;5053562;28;20047;-68
2022/07/19 04:05:32;;;;;;;2.78;2.05;;;;;;;;;;5045391;28;20026;-66
2022/07/19 04:07:57;;;;;;;3.47;2.53;;;;;;;;;;5055254;28;20024;-68
2022/07/19 04:10:22;;;;;;;2.88;2.67;;;;;;;;;;5053316;28;20483;-67
2022/07/19 04:12:48;;;;;;;2.42;2.22;;;;;;;;;;5052902;28;20465;-68
2022/07/19 04:15:13;;;;;;;5.18;2.45;;;;;;;;;;5055784;28;20021;-68
2022/07/19 04:17:38;;;;;;;1.92;1.83;;;;;;;;;;5055198;28;20024;-67
2022/07/19 04:20:04;;;;;;;2.10;2.00;;;;;;;;;;5052579;28;20073;-69
2022/07/19 04:22:30;;;;;;;3.55;2.45;;;;;;;;;;5054477;28;20020;-68
2022/07/19 04:24:55;;;;;;;5.65;3.00;;;;;;;;;;5052040;28;20044;-67
2022/07/19 04:27:21;;;;;;;2.38;2.03;;;;;;;;;;5055845;28;20024;-67
2022/07/19 04:29:46;;;;;;;2.30;2.10;;;;;;;;;;5037616;28;20086;-69
2022/07/19 04:32:12;;;;;;;2.50;2.30;;;;;;;;;;5055345;28;20472;-67
2022/07/19 04:34:37;;;;;;;4.32;2.53;;;;;;;;;;5052759;28;20048;-68
2022/07/19 04:37:02;;;;;;;2.70;2.50;;;;;;;;;;5054585;28;20328;-68
2022/07/19 04:39:27;;;;;;;2.72;2.00;;;;;;;;;;5051841;28;20470;-67
2022/07/19 04:41:52;;;;;;;3.65;2.25;;;;;;;;;;5035154;28;20505;-68
2022/07/19 04:44:18;;;;;;;3.17;2.00;;;;;;;;;;5039882;28;20457;-68
2022/07/19 04:46:45;;;;;;;3.03;2.63;;;;;;;;;;5055494;28;20120;-68
2022/07/19 04:49:10;;;;;;;2.40;2.20;;;;;;;;;;5034664;28;20033;-68
2022/07/19 04:51:35;;;;;;;3.22;2.28;;;;;;;;;;5038561;28;20182;-68
2022/07/19 04:54:01;;;;;;;3.15;2.63;;;;;;;;;;5052883;28;20025;-68
2022/07/19 04:56:26;;;;;;;3.22;3.00;;;;;;;;;;5054758;28;20025;-67
2022/07/19 04:58:51;;;;;;;5.20;2.80;;;;;;;;;;5045893;28;20041;-69
2022/07/19 05:01:16;;;;;;;4.22;2.50;;;;;;;;;;5052133;28;20675;-67
2022/07/19 05:03:42;;;;;;;3.15;2.50;;;;;;;;;;5052071;28;20908;-68
2022/07/19 05:06:07;;;;;;;2.90;2.70;;;;;;;;;;5037587;28;20029;-68
2022/07/19 05:08:32;;;;;;;3.22;2.58;;;;;;;;;;5039224;28;20045;-68
2022/07/19 05:10:57;;;;;;;3.08;2.75;;;;;;;;;;5036490;28;20171;-68
2022/07/19 05:13:23;;;;;;;3.97;2.83;;;;;;;;;;5052798;28;20025;-67
2022/07/19 05:15:48;;;;;;;2.95;2.75;;;;;;;;;;5052096;28;20033;-66
2022/07/19 05:18:13;;;;;;;3.05;2.70;;;;;;;;;;5052141;28;20483;-66
2022/07/19 05:20:38;;;;;;;2.80;2.63;;;;;;;;;;5054535;28;20158;-68
2022/07/19 05:23:04;;;;;;;3.78;2.92;;;;;;;;;;5052378;28;20516;-67
2022/07/19 05:25:29;;;;;;;2.53;2.42;;;;;;;;;;5052607;28;20024;-67
2022/07/19 05:27:56;;;;;;;5.20;2.92;;;;;;;;;;5053912;28;20040;-68
2022/07/19 05:30:22;;;;;;;3.10;2.20;;;;;;;;;;5053957;28;20040;-68
2022/07/19 05:32:47;;;;;;;2.97;2.78;;;;;;;;;;5051758;28;20041;-68
2022/07/19 05:35:12;;;;;;;3.58;2.72;;;;;;;;;;5050519;28;20522;-68
2022/07/19 05:37:38;;;;;;;3.40;2.60;;;;;;;;;;5052771;28;20082;-68
2022/07/19 05:40:03;;;;;;;4.43;2.58;;;;;;;;;;5053067;28;20115;-68
2022/07/19 05:42:29;;;;;;;4.57;3.15;;;;;;;;;;5051216;28;20543;-67
2022/07/19 05:44:54;;;;;;;3.45;2.25;;;;;;;;;;5051513;28;20028;-67
2022/07/19 05:47:19;;;;;;;3.22;2.75;;;;;;;;;;5052228;28;20025;-67
2022/07/19 05:49:44;;;;;;;2.70;2.58;;;;;;;;;;5053095;28;20382;-67
2022/07/19 05:52:10;;;;;;;4.22;2.85;;;;;;;;;;5053197;28;20082;-68
2022/07/19 05:54:35;;;;;;;3.03;2.70;;;;;;;;;;5053614;28;20459;-67
2022/07/19 05:57:00;;;;;;;3.80;2.60;;;;;;;;;;5052596;28;20174;-68
2022/07/19 05:59:26;;;;;;;2.58;2.47;;;;;;;;;;5052792;28;20032;-68
2022/07/19 06:01:52;;;;;;;2.97;2.70;;;;;;;;;;5053678;28;20083;-68
2022/07/19 06:04:17;;;;;;;4.65;2.80;;;;;;;;;;5034973;28;20483;-68
2022/07/19 06:06:42;;;;;;;2.50;2.25;;;;;;;;;;5053086;28;20125;-68
2022/07/19 06:09:09;;;;;;;2.20;2.10;;;;;;;;;;5036786;28;20067;-69
2022/07/19 06:11:34;;;;;;;2.55;2.35;;;;;;;;;;5051829;28;20024;-69
2022/07/19 06:14:00;;;;;;;2.08;1.98;;;;;;;;;;5053424;28;20040;-67
2022/07/19 06:16:25;;;;;;;3.67;2.35;;;;;;;;;;5050909;28;20379;-68
2022/07/19 06:18:51;;;;;;;3.22;2.30;;;;;;;;;;5042993;28;20391;-68
2022/07/19 06:21:17;;;;;;;2.97;2.60;;;;;;;;;;5052064;28;20738;-68
2022/07/19 06:23:43;;;;;;;2.70;2.55;;;;;;;;;;5037126;28;20032;-67
2022/07/19 06:26:09;;;;;;;2.53;2.33;;;;;;;;;;5050049;28;20391;-68
2022/07/19 06:28:34;;;;;;;3.13;2.17;;;;;;;;;;5051044;28;20064;-67
2022/07/19 06:30:59;;;;;;;6.68;2.60;;;;;;;;;;5053483;28;20033;-68
2022/07/19 06:33:25;;;;;;;2.67;2.30;;;;;;;;;;5053810;28;20017;-67
2022/07/19 06:35:50;;;;;;;3.10;2.15;;;;;;;;;;5052383;28;20518;-68
2022/07/19 06:38:15;;;;;;;2.72;2.35;;;;;;;;;;5052850;28;20034;-68
2022/07/19 06:40:41;;;;;;;2.75;2.55;;;;;;;;;;5052173;28;20849;-67
2022/07/19 06:43:06;;;;;;;2.65;2.17;;;;;;;;;;5054024;28;20036;-67
2022/07/19 06:45:32;;;;;;;3.90;2.30;;;;;;;;;;5052078;28;20032;-69
2022/07/19 06:47:57;;;;;;;2.60;2.40;;;;;;;;;;5052969;28;20086;-67
2022/07/19 06:50:23;;;;;;;3.20;2.50;;;;;;;;;;5051169;28;20036;-67
2022/07/19 06:52:48;;;;;;;5.97;2.05;;;;;;;;;;5053131;28;20046;-67
2022/07/19 06:55:13;;;;;;;2.90;2.20;;;;;;;;;;5050796;28;20032;-67
2022/07/19 06:57:38;;;;;;;3.47;2.42;;;;;;;;;;5052250;28;20025;-66
2022/07/19 07:00:06;;;;;;;3.67;2.25;;;;;;;;;;5051392;28;20033;-67
2022/07/19 07:02:31;;;;;;;2.53;2.30;;;;;;;;;;5052942;28;20055;-67
2022/07/19 07:04:56;;;;;;;2.60;2.40;;;;;;;;;;5037850;28;20029;-67
2022/07/19 07:07:21;;;;;;;2.75;2.00;;;;;;;;;;5049036;28;20373;-67
2022/07/19 07:09:47;;;;;;;3.55;2.33;;;;;;;;;;5050861;28;20040;-68
2022/07/19 07:12:12;;;;;;;1.77;1.67;;;;;;;;;;5050450;28;20041;-67
2022/07/19 07:14:37;;;;;;;3.25;2.03;;;;;;;;;;5048425;28;20024;-67
2022/07/19 07:17:02;;;;;;;3.20;2.30;;;;;;;;;;5035497;28;20697;-67
2022/07/19 07:19:28;;;;;;;2.88;2.65;;;;;;;;;;5052046;28;20661;-67
2022/07/19 07:21:53;;;;;;;2.13;1.95;;;;;;;;;;5051911;28;20106;-67
2022/07/19 07:24:18;;;;;;;2.30;2.10;;;;;;;;;;5053191;28;20565;-67
2022/07/19 07:26:43;;;;;;;4.35;2.20;;;;;;;;;;5052555;28;20040;-68
2022/07/19 07:29:09;;;;;;;2.75;2.38;;;;;;;;;;5051424;28;20044;-67
2022/07/19 07:31:34;;;;;;;3.63;2.35;;;;;;;;;;5050251;28;20420;-67
2022/07/19 07:33:59;;;;;;;2.22;2.00;;;;;;;;;;5049533;28;20025;-67
2022/07/19 07:36:25;;;;;;;2.80;2.60;;;;;;;;;;5051070;28;20023;-68
2022/07/19 07:38:50;;;;;;;2.50;2.20;;;;;;;;;;5052201;28;20056;-68
2022/07/19 07:41:15;;;;;;;2.60;2.13;;;;;;;;;;5051354;28;20390;-67
2022/07/19 07:43:40;;;;;;;3.13;2.45;;;;;;;;;;5051494;28;20069;-68
2022/07/19 07:46:06;;;;;;;3.78;2.10;;;;;;;;;;5052093;28;20029;-67
2022/07/19 07:48:31;;;;;;;3.05;2.83;;;;;;;;;;5036337;28;20086;-68
2022/07/19 07:50:56;;;;;;;2.38;2.13;;;;;;;;;;5052856;28;20064;-67
2022/07/19 07:53:21;;;;;;;2.30;2.17;;;;;;;;;;5033842;28;20052;-67
2022/07/19 07:55:47;;;;;;;2.80;2.08;;;;;;;;;;5050659;28;20028;-67
2022/07/19 07:58:12;;;;;;;2.63;2.22;;;;;;;;;;5051982;28;20039;-67
2022/07/19 08:00:38;;;;;;;5.70;3.33;;;;;;;;;;5051452;28;20813;-68
2022/07/19 08:03:04;;;;;;;2.50;2.30;;;;;;;;;;5052229;28;20078;-69
2022/07/19 08:05:30;;;;;;;3.28;2.90;;;;;;;;;;5051100;28;20021;-68
2022/07/19 08:07:56;;;;;;;2.42;2.28;;;;;;;;;;5050695;28;20028;-68
2022/07/19 08:10:22;;;;;;;3.15;2.03;;;;;;;;;;5051054;28;20042;-68
2022/07/19 08:12:47;;;;;;;4.53;2.38;;;;;;;;;;5052260;28;20032;-70
2022/07/19 08:15:12;;;;;;;5.32;2.47;;;;;;;;;;5050564;28;20067;-66
2022/07/19 08:17:38;;;;;;;3.90;2.47;;;;;;;;;;5050927;28;20863;-66
2022/07/19 08:20:03;;;;;;;7.03;3.13;;;;;;;;;;5051686;28;20037;-67
2022/07/19 08:22:29;;;;;;;4.97;3.17;;;;;;;;;;5052610;28;20032;-71
2022/07/19 08:24:54;;;;;;;3.67;2.80;;;;;;;;;;5034374;28;20137;-67
2022/07/19 08:27:19;;;;;;;3.90;3.00;;;;;;;;;;5053587;28;20080;-67
2022/07/19 08:29:45;;;;;;;5.55;3.75;;;;;;;;;;5053389;28;20045;-68
2022/07/19 08:32:10;;;;;;;7.18;2.90;;;;;;;;;;5054362;28;20029;-68
2022/07/19 08:34:37;;;;;;;4.80;2.50;;;;;;;;;;5055088;28;20035;-68
2022/07/19 08:37:03;;;;;;;2.95;2.53;;;;;;;;;;5039551;28;20448;-69
2022/07/19 08:39:29;;;;;;;6.05;3.10;;;;;;;;;;5054818;28;20075;-68
2022/07/19 08:41:55;;;;;;;4.20;2.92;;;;;;;;;;5055183;28;20373;-69
2022/07/19 08:44:23;;;;;;;3.20;2.75;;;;;;;;;;5056171;28;20419;-69
2022/07/19 08:46:49;;;;;;;3.42;2.53;;;;;;;;;;5054985;28;20616;-69
2022/07/19 08:49:15;;;;;;;4.72;3.10;;;;;;;;;;5039464;28;20045;-68
2022/07/19 08:51:41;;;;;;;2.90;2.70;;;;;;;;;;5037065;28;20033;-68
2022/07/19 08:54:06;;;;;;;9.95;2.80;;;;;;;;;;5055180;28;20988;-68
2022/07/19 08:59:15;;;;;;;4.85;3.17;;;;;;;;;;5054394;28;20556;-68
2022/07/19 09:01:40;;;;;;;4.72;3.08;;;;;;;;;;5055948;28;20029;-67
2022/07/19 09:04:07;;;;;;;4.15;3.10;;;;;;;;;;5054654;28;20467;-67
2022/07/19 09:06:46;;;;;;;6.38;3.10;;;;;;;;;;5051996;28;20029;-67
2022/07/19 09:09:12;;;;;;;5.95;2.80;;;;;;;;;;5051960;28;20067;-66
2022/07/19 09:11:48;;;;;;;7.07;3.55;;;;;;;;;;5054725;28;20381;-68
2022/07/19 09:14:16;;;;;;;6.43;3.42;;;;;;;;;;5052506;28;20075;-68
2022/07/19 09:17:03;;;;;;;4.60;2.83;;;;;;;;;;5040667;28;20028;-68
2022/07/19 09:19:39;;;;;;;8.05;2.85;;;;;;;;;;5054287;28;20021;-68
2022/07/19 09:22:05;;;;;;;7.28;3.20;;;;;;;;;;5048923;28;20025;-68
2022/07/19 09:24:32;;;;;;;4.90;3.30;;;;;;;;;;5053644;28;20078;-68
2022/07/19 09:27:07;;;;;;;4.63;2.80;;;;;;;;;;5053593;28;20059;-68
2022/07/19 09:29:34;;;;;;;4.93;3.30;;;;;;;;;;5054563;28;20052;-66
2022/07/19 09:31:59;;;;;;;3.72;2.20;;;;;;;;;;5052579;28;20031;-67
2022/07/19 09:34:28;;;;;;;3.70;3.13;;;;;;;;;;5051931;28;20025;-67
2022/07/19 09:37:12;;;;;;;11.20;4.03;;;;;;;;;;5054176;28;20037;-68
2022/07/19 09:39:47;;;;;;;7.65;2.95;;;;;;;;;;5052803;28;20057;-68
2022/07/19 09:42:13;;;;;;;3.28;2.72;;;;;;;;;;5053181;28;20033;-67
2022/07/19 09:44:38;;;;;;;6.35;3.03;;;;;;;;;;5055262;28;20032;-67
2022/07/19 09:47:03;;;;;;;3.30;3.08;;;;;;;;;;5054640;28;20179;-67
2022/07/19 09:49:29;;;;;;;4.32;3.38;;;;;;;;;;5052350;28;20043;-68
2022/07/19 09:51:54;;;;;;;4.88;3.60;;;;;;;;;;5053937;28;20039;-68
2022/07/19 09:54:22;;;;;;;6.53;3.03;;;;;;;;;;5052078;28;20445;-68
2022/07/19 09:56:48;;;;;;;7.50;3.50;;;;;;;;;;5052599;28;20032;-68
2022/07/19 09:59:14;;;;;;;6.40;2.90;;;;;;;;;;5052094;28;20432;-68
2022/07/19 10:01:39;;;;;;;7.22;2.60;;;;;;;;;;5053105;28;20024;-68
2022/07/19 10:04:12;;;;;;;3.47;3.15;;;;;;;;;;5043478;28;20489;-68
2022/07/19 10:06:38;;;;;;;3.60;2.95;;;;;;;;;;5051395;28;20057;-67
2022/07/19 10:09:04;;;;;;;3.33;3.03;;;;;;;;;;5049552;28;20033;-67
2022/07/19 10:11:30;;;;;;;3.60;3.28;;;;;;;;;;5052840;28;20033;-70
2022/07/19 10:13:56;;;;;;;3.70;2.70;;;;;;;;;;5053551;28;20032;-69
2022/07/19 10:16:32;;;;;;;2.97;2.67;;;;;;;;;;5050753;28;20114;-69
2022/07/19 10:19:15;;;;;;;3.35;3.15;;;;;;;;;;5052654;28;20112;-69
2022/07/19 10:21:41;;;;;;;3.60;2.90;;;;;;;;;;5051366;28;20027;-69
2022/07/19 10:24:07;;;;;;;4.95;2.60;;;;;;;;;;5053295;28;20032;-68
2022/07/19 10:26:33;;;;;;;3.63;3.17;;;;;;;;;;5053383;28;20124;-69
2022/07/19 10:29:08;;;;;;;3.72;2.85;;;;;;;;;;5053422;28;20044;-68
2022/07/19 10:31:35;;;;;;;3.30;3.10;;;;;;;;;;5052689;28;20077;-68
2022/07/19 10:34:04;;;;;;;7.10;2.97;;;;;;;;;;5051452;28;20120;-68
2022/07/19 10:36:30;;;;;;;3.42;3.00;;;;;;;;;;5052985;28;20043;-68
2022/07/19 10:39:14;;;;;;;4.47;3.22;;;;;;;;;;5052079;28;20061;-68
2022/07/19 10:41:39;;;;;;;3.63;3.33;;;;;;;;;;5051359;28;20021;-68
2022/07/19 10:44:09;;;;;;;3.08;2.88;;;;;;;;;;5052448;28;20610;-68
2022/07/19 10:46:34;;;;;;;7.45;2.95;;;;;;;;;;5052233;28;20020;-68
2022/07/19 10:48:59;;;;;;;6.38;3.20;;;;;;;;;;5050952;28;20034;-68
2022/07/19 10:51:29;;;;;;;3.63;3.45;;;;;;;;;;5035180;28;20032;-70
2022/07/19 10:54:08;;;;;;;2.70;2.50;;;;;;;;;;5037226;28;20035;-69
2022/07/19 10:56:37;;;;;;;3.75;3.10;;;;;;;;;;5054369;28;20065;-69
2022/07/19 10:59:07;;;;;;;4.53;2.60;;;;;;;;;;5049909;28;20539;-69
2022/07/19 11:01:33;;;;;;;3.65;3.22;;;;;;;;;;5052608;28;20029;-69
2022/07/19 11:04:17;;;;;;;3.83;3.58;;;;;;;;;;5051616;28;20061;-68
2022/07/19 11:06:42;;;;;;;5.70;3.42;;;;;;;;;;5053305;28;20198;-69
2022/07/19 11:09:08;;;;;;;3.17;2.53;;;;;;;;;;5052815;28;20043;-69
2022/07/19 11:11:33;;;;;;;5.78;3.17;;;;;;;;;;5049644;28;20033;-68
2022/07/19 11:13:58;;;;;;;4.13;3.00;;;;;;;;;;5051226;28;20159;-68
2022/07/19 11:16:24;;;;;;;3.85;3.00;;;;;;;;;;5035739;28;20581;-67
2022/07/19 11:18:49;;;;;;;3.53;3.08;;;;;;;;;;5051657;28;20052;-68
2022/07/19 11:21:15;;;;;;;2.72;2.53;;;;;;;;;;5051131;28;20028;-67
2022/07/19 11:23:41;;;;;;;5.60;3.28;;;;;;;;;;5051043;28;20085;-68
2022/07/19 11:26:09;;;;;;;3.50;3.30;;;;;;;;;;5052038;28;20394;-69
2022/07/19 11:28:34;;;;;;;3.22;3.03;;;;;;;;;;5052404;28;20028;-68
2022/07/19 11:31:00;;;;;;;5.18;3.30;;;;;;;;;;5052004;28;20364;-68
2022/07/19 11:33:25;;;;;;;2.72;2.53;;;;;;;;;;5051113;28;20502;-69
2022/07/19 11:35:54;;;;;;;5.03;3.40;;;;;;;;;;5033968;28;20471;-68
2022/07/19 11:38:20;;;;;;;3.88;3.05;;;;;;;;;;5052097;28;20031;-68
2022/07/19 11:40:45;;;;;;;7.60;3.20;;;;;;;;;;5051400;28;20033;-68
2022/07/19 11:43:10;;;;;;;2.85;2.65;;;;;;;;;;5051884;28;20035;-68
2022/07/19 11:45:43;;;;;;;3.53;2.97;;;;;;;;;;5052159;28;20024;-69
2022/07/19 11:48:08;;;;;;;3.45;3.15;;;;;;;;;;5054169;28;20381;-69
2022/07/19 11:50:34;;;;;;;3.60;3.30;;;;;;;;;;5051407;28;20038;-68
2022/07/19 11:53:00;;;;;;;3.97;3.28;;;;;;;;;;5034918;28;20051;-68
2022/07/19 11:55:30;;;;;;;3.72;3.45;;;;;;;;;;5052443;28;20110;-68
2022/07/19 11:57:56;;;;;;;4.45;4.13;;;;;;;;;;5019650;28;20475;-69
2022/07/19 12:00:22;;;;;;;4.88;2.83;;;;;;;;;;5052203;28;20033;-68
2022/07/19 12:02:56;;;;;;;4.50;2.83;;;;;;;;;;5052959;28;20071;-69
2022/07/19 12:05:21;;;;;;;3.95;3.22;;;;;;;;;;5055715;28;20028;-68
2022/07/19 12:07:50;;;;;;;3.90;3.10;;;;;;;;;;5056350;28;20346;-67
2022/07/19 12:10:34;;;;;;;5.50;2.75;;;;;;;;;;5052949;28;20069;-68
2022/07/19 12:13:00;;;;;;;4.93;3.13;;;;;;;;;;5053104;28;20040;-68
2022/07/19 12:15:26;;;;;;;3.50;3.17;;;;;;;;;;5053541;28;20501;-67
2022/07/19 12:17:57;;;;;;;3.33;3.03;;;;;;;;;;5056128;28;20029;-68
2022/07/19 12:20:23;;;;;;;3.95;3.40;;;;;;;;;;5054009;28;20115;-69
2022/07/19 12:22:48;;;;;;;4.13;3.33;;;;;;;;;;5055478;28;20048;-68
2022/07/19 12:25:14;;;;;;;3.42;3.22;;;;;;;;;;5054259;28;20519;-68
2022/07/19 12:27:40;;;;;;;2.88;2.70;;;;;;;;;;5054129;28;20029;-68
2022/07/19 12:30:06;;;;;;;3.85;3.28;;;;;;;;;;5044697;28;20075;-69
2022/07/19 12:32:36;;;;;;;3.00;2.80;;;;;;;;;;5053635;28;20507;-69
2022/07/19 12:35:02;;;;;;;3.65;3.53;;;;;;;;;;5055624;28;20074;-68
2022/07/19 12:37:29;;;;;;;2.88;2.70;;;;;;;;;;5056045;28;20032;-69
2022/07/19 12:40:10;;;;;;;3.80;3.55;;;;;;;;;;5054085;28;20063;-68
2022/07/19 12:42:41;;;;;;;5.57;3.72;;;;;;;;;;5052976;28;20060;-69
2022/07/19 12:45:07;;;;;;;4.10;3.75;;;;;;;;;;5053876;28;20391;-68
2022/07/19 12:47:32;;;;;;;3.55;3.17;;;;;;;;;;5054563;28;20374;-67
2022/07/19 12:49:57;;;;;;;4.75;3.17;;;;;;;;;;5035811;28;20037;-68
2022/07/19 12:52:23;;;;;;;5.00;3.35;;;;;;;;;;5035529;28;20037;-68
2022/07/19 12:54:48;;;;;;;4.53;2.97;;;;;;;;;;5039346;28;20176;-67
2022/07/19 12:57:13;;;;;;;4.88;3.63;;;;;;;;;;5055295;28;20465;-68
2022/07/19 12:59:38;;;;;;;3.40;3.08;;;;;;;;;;5054050;28;20036;-68
2022/07/19 13:02:04;;;;;;;3.83;3.50;;;;;;;;;;5052868;28;20021;-68
2022/07/19 13:04:29;;;;;;;5.97;3.50;;;;;;;;;;5052433;28;20124;-67
2022/07/19 13:06:54;;;;;;;4.05;3.63;;;;;;;;;;5052402;28;20549;-68
2022/07/19 13:09:20;;;;;;;3.92;3.15;;;;;;;;;;5052126;28;20051;-68
2022/07/19 13:11:45;;;;;;;3.97;3.78;;;;;;;;;;5054491;28;20348;-68
2022/07/19 13:14:11;;;;;;;4.90;3.60;;;;;;;;;;5035080;28;20025;-69
2022/07/19 13:16:36;;;;;;;3.45;3.00;;;;;;;;;;5053052;28;20157;-68
2022/07/19 13:19:02;;;;;;;5.78;3.40;;;;;;;;;;5053727;28;20029;-69
2022/07/19 13:21:27;;;;;;;3.63;3.28;;;;;;;;;;5052627;28;20029;-68
2022/07/19 13:23:52;;;;;;;4.50;4.10;;;;;;;;;;5035768;28;20925;-68
2022/07/19 13:26:17;;;;;;;3.58;3.38;;;;;;;;;;5054322;28;20032;-68
2022/07/19 13:28:43;;;;;;;4.65;4.20;;;;;;;;;;5052941;28;20033;-67
2022/07/19 13:31:08;;;;;;;3.95;3.45;;;;;;;;;;5053858;28;20363;-68
2022/07/19 13:33:33;;;;;;;3.78;3.58;;;;;;;;;;5053576;28;20396;-68
2022/07/19 13:35:58;;;;;;;5.13;4.53;;;;;;;;;;5053484;28;20802;-67
2022/07/19 13:38:24;;;;;;;3.70;3.45;;;;;;;;;;5050506;28;20053;-67
2022/07/19 13:40:49;;;;;;;3.85;3.53;;;;;;;;;;5053517;28;20025;-68
2022/07/19 13:43:14;;;;;;;4.38;3.63;;;;;;;;;;5038367;28;20147;-68
2022/07/19 13:45:39;;;;;;;3.80;3.50;;;;;;;;;;5052716;28;20154;-68
2022/07/19 13:48:05;;;;;;;4.35;3.42;;;;;;;;;;5048423;28;20398;-68
2022/07/19 13:50:30;;;;;;;5.35;3.90;;;;;;;;;;5037353;28;20071;-68
2022/07/19 13:52:57;;;;;;;6.65;3.55;;;;;;;;;;5051924;28;20037;-68
2022/07/19 13:55:22;;;;;;;4.10;3.20;;;;;;;;;;5051872;28;20542;-67
2022/07/19 13:57:47;;;;;;;4.30;3.40;;;;;;;;;;5053105;28;20029;-67
2022/07/19 14:00:15;;;;;;;4.78;3.50;;;;;;;;;;5054718;28;20041;-66
2022/07/19 14:02:41;;;;;;;6.18;3.33;;;;;;;;;;5053614;28;20480;-68
2022/07/19 14:05:06;;;;;;;4.80;3.70;;;;;;;;;;5052173;28;20640;-66
2022/07/19 14:07:31;;;;;;;3.78;3.38;;;;;;;;;;5033449;28;20032;-69
2022/07/19 14:09:57;;;;;;;4.50;3.05;;;;;;;;;;5051010;28;20041;-69
2022/07/19 14:12:22;;;;;;;5.43;3.67;;;;;;;;;;5053557;28;20041;-69
2022/07/19 14:14:47;;;;;;;4.05;3.65;;;;;;;;;;5052261;28;20024;-68
2022/07/19 14:17:16;;;;;;;4.22;3.85;;;;;;;;;;5051584;28;20060;-68
2022/07/19 14:19:41;;;;;;;5.45;3.85;;;;;;;;;;5052046;28;20513;-68
2022/07/19 14:22:06;;;;;;;5.90;3.58;;;;;;;;;;5052724;28;20025;-68
2022/07/19 14:24:32;;;;;;;3.33;3.00;;;;;;;;;;5053597;28;20394;-68
2022/07/19 14:26:57;;;;;;;3.47;3.17;;;;;;;;;;5033083;28;20112;-68
2022/07/19 14:29:22;;;;;;;6.53;3.22;;;;;;;;;;5051202;28;20045;-69
2022/07/19 14:31:47;;;;;;;5.00;3.55;;;;;;;;;;5053487;28;20115;-69
2022/07/19 14:34:13;;;;;;;3.65;3.45;;;;;;;;;;5036688;28;20441;-69
2022/07/19 14:36:38;;;;;;;4.03;3.72;;;;;;;;;;5038529;28;20108;-69
2022/07/19 14:39:05;;;;;;;5.18;3.63;;;;;;;;;;5052102;28;20080;-69
2022/07/19 14:41:30;;;;;;;4.63;4.22;;;;;;;;;;5052759;28;20017;-69